Time;durP1;ratioP1;P1;durP2;ratioP2;P2;SDS_P1;SDS_P2;PMS_P1;PMS_P2;Temp;Humidity;BMP_temperature;BMP_pressure;BME280_temperature;BME280_humidity;BME280_pressure;Samples;Min_cycle;Max_cycle;Signal;HPM_P1;HPM_P2
2022/10/05 00:01:33;;;;;;;8.93;6.15;;;;;;;11.54;68.29;100806.38;10448490;28;20080;-67
2022/10/05 00:06:34;;;;;;;9.63;5.95;;;;;;;11.50;68.15;100803.19;10449837;28;20128;-68
2022/10/05 00:11:36;;;;;;;10.68;5.88;;;;;;;11.45;68.13;100784.88;10450645;28;20123;-67
2022/10/05 00:16:37;;;;;;;11.50;6.85;;;;;;;11.39;68.44;100777.44;10450995;28;20112;-67
2022/10/05 00:21:38;;;;;;;10.30;6.80;;;;;;;11.34;68.76;100769.06;10449145;28;20136;-66
2022/10/05 00:26:40;;;;;;;12.30;7.15;;;;;;;11.30;68.76;100775.81;10450362;28;20067;-67
2022/10/05 00:31:41;;;;;;;12.88;7.15;;;;;;;11.23;69.12;100781.00;10448490;28;20643;-66
2022/10/05 00:36:44;;;;;;;10.82;6.70;;;;;;;11.23;69.17;100775.63;10450886;28;20033;-66
2022/10/05 00:41:57;;;;;;;17.83;7.70;;;;;;;11.20;69.33;100765.22;10426654;28;20454;-66
2022/10/05 00:47:09;;;;;;;11.18;6.18;;;;;;;11.18;69.38;100748.41;10431621;28;20107;-66
2022/10/05 00:52:20;;;;;;;14.10;7.63;;;;;;;11.17;69.29;100753.94;10449922;28;20628;-67
2022/10/05 00:57:45;;;;;;;10.60;7.30;;;;;;;11.13;69.38;100749.91;10431065;28;20165;-67
2022/10/05 01:03:02;;;;;;;14.00;7.22;;;;;;;11.11;69.90;100760.84;10445810;28;20119;-65
2022/10/05 01:09:01;;;;;;;14.17;7.13;;;;;;;11.10;69.87;100760.00;10446595;28;20069;-66
2022/10/05 01:14:30;;;;;;;13.15;6.47;;;;;;;11.07;69.78;100764.88;10239634;28;20066;-65
2022/10/05 01:20:01;;;;;;;10.60;6.82;;;;;;;10.99;69.80;100763.03;10417701;28;20211;-66
2022/10/05 01:25:15;;;;;;;14.30;8.57;;;;;;;10.94;69.76;100769.94;10419985;28;20143;-65
2022/10/05 01:30:19;;;;;;;11.65;7.68;;;;;;;10.93;69.87;100768.25;10454325;28;20144;-66
2022/10/05 01:35:33;;;;;;;14.30;7.82;;;;;;;10.93;69.98;100768.25;10456003;28;20124;-65
2022/10/05 01:41:02;;;;;;;14.75;7.93;;;;;;;10.91;69.79;100765.72;10454123;28;20076;-66
2022/10/05 01:46:32;;;;;;;10.63;6.18;;;;;;;10.86;69.78;100747.41;10457561;28;20129;-66
2022/10/05 01:51:46;;;;;;;12.32;7.25;;;;;;;10.87;69.81;100748.25;10432246;28;20060;-67
2022/10/05 01:57:16;;;;;;;14.30;7.60;;;;;;;10.81;69.70;100733.63;10452705;28;20041;-65
2022/10/05 02:02:22;;;;;;;12.43;8.20;;;;;;;10.80;69.65;100726.59;10455785;28;20500;-66
2022/10/05 02:07:48;;;;;;;11.65;6.43;;;;;;;10.74;69.57;100723.72;10454835;28;20045;-66
2022/10/05 02:12:55;;;;;;;11.88;6.88;;;;;;;10.68;69.95;100717.16;10437026;28;20068;-66
2022/10/05 02:18:09;;;;;;;11.80;6.75;;;;;;;10.62;69.94;100720.50;10455954;28;20570;-65
2022/10/05 02:23:17;;;;;;;13.82;7.38;;;;;;;10.64;69.86;100718.50;10455279;28;20610;-66
2022/10/05 02:28:26;;;;;;;12.18;6.63;;;;;;;10.60;70.04;100712.59;10435358;28;20045;-66
2022/10/05 02:33:31;;;;;;;11.00;7.15;;;;;;;10.56;69.79;100699.66;10427569;28;20106;-67
2022/10/05 02:38:46;;;;;;;11.15;6.50;;;;;;;10.49;69.91;100694.97;10432229;28;20041;-65
2022/10/05 02:44:23;;;;;;;11.77;6.43;;;;;;;10.43;69.90;100697.50;10452799;28;20680;-66
2022/10/05 02:49:39;;;;;;;11.70;7.63;;;;;;;10.40;69.88;100701.34;10446605;28;20045;-66
2022/10/05 02:54:53;;;;;;;12.20;8.68;;;;;;;10.31;69.88;100705.03;10453330;28;20124;-67
2022/10/05 03:00:13;;;;;;;13.50;8.63;;;;;;;10.31;69.96;100702.34;10436271;28;20067;-67
2022/10/05 03:05:24;;;;;;;15.70;8.40;;;;;;;10.30;70.22;100703.34;10427167;28;20132;-65
2022/10/05 03:10:41;;;;;;;12.70;8.80;;;;;;;10.30;69.93;100706.03;10435186;28;20045;-66
2022/10/05 03:15:46;;;;;;;;;;;;;;;10.31;69.81;100710.41;10436529;28;20060;-66
2022/10/05 03:20:54;;;;;;;13.43;7.00;;;;;;;10.35;69.88;100709.06;10453728;28;20299;-66
2022/10/05 03:26:20;;;;;;;16.85;8.60;;;;;;;10.36;70.01;100715.28;10449144;28;20140;-66
2022/10/05 03:31:42;;;;;;;10.23;7.57;;;;;;;10.36;69.99;100724.16;10451789;28;20091;-65
2022/10/05 03:36:56;;;;;;;18.80;8.68;;;;;;;10.39;70.31;100729.22;10451700;28;20064;-65
2022/10/05 03:42:07;;;;;;;12.90;7.15;;;;;;;10.43;70.44;100722.50;10450563;28;20135;-67
2022/10/05 03:47:27;;;;;;;14.05;7.78;;;;;;;10.45;70.05;100719.66;10447391;28;20076;-68
2022/10/05 03:52:47;;;;;;;11.88;7.20;;;;;;;10.47;70.10;100721.16;10429011;28;20069;-66
2022/10/05 03:57:51;;;;;;;11.90;7.95;;;;;;;10.53;70.36;100719.66;10448240;28;20147;-65
2022/10/05 04:03:19;;;;;;;16.50;8.00;;;;;;;10.59;70.66;100715.47;10448143;28;20106;-67
2022/10/05 04:08:27;;;;;;;;;;;;;;;10.65;70.36;100715.63;10448550;28;20065;-67
2022/10/05 04:13:41;;;;;;;10.27;6.70;;;;;;;10.76;70.21;100702.88;10445807;28;20015;-67
2022/10/05 04:19:10;;;;;;;18.00;7.35;;;;;;;10.81;70.17;100701.34;10432064;28;20040;-68
2022/10/05 04:24:21;;;;;;;18.35;7.65;;;;;;;10.91;70.20;100698.50;10430086;28;20048;-68
2022/10/05 04:29:52;;;;;;;27.88;10.73;;;;;;;11.06;70.46;100710.25;10447644;28;20072;-66
2022/10/05 04:35:24;;;;;;;44.55;15.27;;;;;;;11.15;71.04;100712.91;10446423;28;20071;-67
2022/10/05 04:41:03;;;;;;;50.53;15.50;;;;;;;11.29;71.05;100713.06;10427827;28;20051;-67
2022/10/05 04:46:35;;;;;;;41.65;15.38;;;;;;;11.47;71.60;100715.56;10428126;28;20128;-67
2022/10/05 04:51:52;;;;;;;36.40;16.73;;;;;;;11.62;71.72;100723.72;10365486;28;20056;-67
2022/10/05 04:57:03;;;;;;;41.05;17.15;;;;;;;11.76;71.93;100726.72;10363831;28;20058;-67
2022/10/05 05:02:36;;;;;;;41.75;16.13;;;;;;;11.93;71.78;100732.88;10380706;28;20060;-67
2022/10/05 05:07:51;;;;;;;30.25;14.23;;;;;;;12.06;71.56;100731.31;10363367;28;20527;-67
2022/10/05 05:13:15;;;;;;;33.90;14.68;;;;;;;12.18;71.92;100729.06;10373107;28;20073;-66
2022/10/05 05:18:49;;;;;;;28.88;14.65;;;;;;;12.17;72.25;100732.78;10370356;28;20137;-67
2022/10/05 05:24:11;;;;;;;26.35;13.40;;;;;;;12.17;72.60;100740.03;10370168;28;20210;-68
2022/10/05 05:29:34;;;;;;;26.63;14.32;;;;;;;12.27;72.55;100746.88;10369270;28;20144;-68
2022/10/05 05:34:51;;;;;;;31.30;15.68;;;;;;;12.34;72.83;100746.16;10367513;28;20057;-68
2022/10/05 05:40:11;;;;;;;34.17;16.60;;;;;;;12.44;72.80;100746.75;10368376;28;20084;-67
2022/10/05 05:45:25;;;;;;;29.08;14.48;;;;;;;12.44;73.01;100742.22;10359693;28;20034;-68
2022/10/05 05:50:32;;;;;;;29.17;16.77;;;;;;;12.60;73.02;100748.50;10441689;28;20140;-68
2022/10/05 05:55:48;;;;;;;;;;;;;;;12.61;72.72;100748.34;10427259;28;20543;-67
2022/10/05 06:01:02;;;;;;;33.15;14.70;;;;;;;12.66;72.50;100748.66;10449905;28;20044;-68
2022/10/05 06:06:08;;;;;;;30.02;14.82;;;;;;;12.70;72.70;100741.03;10448483;28;20091;-67
2022/10/05 06:11:20;;;;;;;26.08;14.95;;;;;;;12.73;73.21;100743.34;10436002;28;20642;-68
2022/10/05 06:16:46;;;;;;;26.63;13.93;;;;;;;12.78;72.83;100745.53;10445753;28;20934;-68
2022/10/05 06:22:03;;;;;;;44.92;17.25;;;;;;;12.91;72.57;100745.75;10449304;28;20039;-68
2022/10/05 06:27:24;;;;;;;33.90;17.42;;;;;;;13.06;72.21;100745.78;10448718;28;20068;-67
2022/10/05 06:32:29;;;;;;;30.85;16.58;;;;;;;13.21;72.35;100741.28;10445184;28;20653;-67
2022/10/05 06:38:08;;;;;;;31.02;15.48;;;;;;;13.31;72.52;100750.97;10446476;28;20049;-67
2022/10/05 06:43:28;;;;;;;40.00;17.88;;;;;;;13.28;72.35;100755.69;10442617;28;20045;-67
2022/10/05 06:48:38;;;;;;;49.15;18.73;;;;;;;13.36;72.45;100741.31;10448155;28;20135;-67
2022/10/05 06:53:53;;;;;;;43.50;18.30;;;;;;;13.52;72.70;100745.69;10445378;28;20045;-67
2022/10/05 06:59:03;;;;;;;46.67;18.10;;;;;;;13.55;72.90;100753.44;10447204;28;20045;-67
2022/10/05 07:04:14;;;;;;;45.20;17.98;;;;;;;13.67;72.52;100759.22;10444334;28;20652;-67
2022/10/05 07:09:53;;;;;;;50.10;19.02;;;;;;;13.74;72.65;100760.13;10441995;28;20128;-67
2022/10/05 07:15:14;;;;;;;39.05;17.75;;;;;;;13.85;72.70;100750.72;10441431;28;20036;-67
2022/10/05 07:20:24;;;;;;;36.10;15.32;;;;;;;13.91;72.45;100757.25;10444719;28;20574;-67
2022/10/05 07:25:49;;;;;;;34.97;15.95;;;;;;;13.87;72.75;100756.78;10442878;28;20152;-67
2022/10/05 07:30:59;;;;;;;29.48;15.05;;;;;;;13.96;72.99;100761.06;10444689;28;20537;-67
2022/10/05 07:41:47;;;;;;;31.98;15.50;;;;;;;14.17;72.65;100762.97;10445523;28;20120;-68
2022/10/05 07:46:53;;;;;;;35.22;16.20;;;;;;;14.24;72.33;100760.38;10441051;28;20124;-67
2022/10/05 07:51:59;;;;;;;38.63;17.38;;;;;;;14.31;72.37;100755.03;10425305;28;20080;-67
2022/10/05 07:57:12;;;;;;;39.08;17.08;;;;;;;14.36;71.90;100763.44;10438031;28;20047;-68
2022/10/05 08:02:43;;;;;;;38.22;15.93;;;;;;;14.45;71.82;100760.41;10441790;28;20045;-67
2022/10/05 08:07:51;;;;;;;40.60;16.33;;;;;;;14.56;71.79;100760.94;10441094;28;20041;-68
2022/10/05 08:13:11;;;;;;;45.17;18.05;;;;;;;14.52;71.96;100755.06;10444180;28;20463;-68
2022/10/05 08:18:24;;;;;;;39.28;16.60;;;;;;;14.51;71.95;100756.09;10442253;28;20044;-68
2022/10/05 08:23:46;;;;;;;40.42;17.27;;;;;;;14.55;71.62;100757.38;10444275;28;20041;-68
2022/10/05 08:29:15;;;;;;;40.25;16.05;;;;;;;14.55;71.99;100765.50;10440760;28;20131;-68
2022/10/05 08:34:29;;;;;;;37.45;15.77;;;;;;;14.47;71.92;100762.91;10442790;28;20076;-68
2022/10/05 08:39:51;;;;;;;29.73;14.85;;;;;;;14.63;71.54;100762.72;10441769;28;20041;-67
2022/10/05 08:45:23;;;;;;;32.42;15.18;;;;;;;14.51;71.97;100755.25;10442229;28;20136;-68
2022/10/05 08:51:03;;;;;;;29.05;13.52;;;;;;;14.66;71.50;100765.03;10420031;28;20127;-68
2022/10/05 08:56:08;;;;;;;30.63;13.65;;;;;;;14.79;71.16;100749.94;10436736;28;20090;-67
2022/10/05 09:01:19;;;;;;;34.08;13.52;;;;;;;14.81;71.13;100751.44;10422553;28;20064;-68
2022/10/05 09:06:49;;;;;;;23.60;13.43;;;;;;;14.96;70.63;100747.81;10442625;28;20036;-68
2022/10/05 09:12:37;;;;;;;27.08;14.18;;;;;;;15.03;70.63;100754.13;10441746;28;20118;-68
2022/10/05 09:18:23;;;;;;;30.08;16.13;;;;;;;15.16;70.29;100751.50;10415998;28;20115;-69
2022/10/05 09:23:42;;;;;;;24.83;14.05;;;;;;;15.31;69.93;100756.03;10442949;28;20071;-68
2022/10/05 09:29:13;;;;;;;23.45;14.02;;;;;;;15.37;69.76;100753.34;10442087;28;20110;-69
2022/10/05 09:34:36;;;;;;;24.27;13.52;;;;;;;15.50;69.69;100744.47;10439360;28;20049;-68
2022/10/05 09:39:45;;;;;;;26.33;15.07;;;;;;;15.85;69.11;100748.03;10440313;28;20040;-68
2022/10/05 09:45:06;;;;;;;27.67;15.93;;;;;;;15.86;69.09;100748.88;10441339;28;20077;-68
2022/10/05 09:50:37;;;;;;;27.30;16.17;;;;;;;16.10;68.55;100743.97;10440046;28;20499;-69
2022/10/05 09:56:08;;;;;;;22.63;13.98;;;;;;;16.39;68.06;100738.22;10439458;28;20102;-68
2022/10/05 10:01:19;;;;;;;21.85;14.90;;;;;;;16.38;67.86;100738.44;10443040;28;20139;-68
2022/10/05 10:07:14;;;;;;;20.05;13.00;;;;;;;16.38;67.84;100724.88;10446732;28;20489;-68
2022/10/05 10:12:15;;;;;;;18.58;13.75;;;;;;;16.55;67.67;100718.03;10447892;28;20772;-68
2022/10/05 10:18:00;;;;;;;19.38;13.32;;;;;;;16.71;67.32;100713.25;10439649;28;20127;-68
2022/10/05 10:23:44;;;;;;;19.13;13.45;;;;;;;16.87;66.92;100721.00;10440840;28;20068;-69
2022/10/05 10:29:02;;;;;;;16.95;12.88;;;;;;;17.15;66.28;100728.94;10443229;28;20136;-69
2022/10/05 10:34:24;;;;;;;16.13;12.80;;;;;;;17.29;65.90;100718.88;10422285;28;20123;-69
2022/10/05 10:39:59;;;;;;;15.85;11.75;;;;;;;17.62;65.29;100726.97;10449142;28;20124;-69
2022/10/05 10:45:18;;;;;;;17.15;12.48;;;;;;;17.81;64.71;100716.22;10425169;28;20117;-68
2022/10/05 10:50:38;;;;;;;14.48;12.90;;;;;;;17.75;64.94;100725.25;10442506;28;20106;-68
2022/10/05 10:56:27;;;;;;;14.70;12.10;;;;;;;18.04;64.63;100711.16;10423768;28;20041;-69
2022/10/05 11:01:34;;;;;;;15.52;12.80;;;;;;;18.17;64.35;100695.84;10264035;28;20137;-68
2022/10/05 11:07:04;;;;;;;17.45;12.68;;;;;;;18.44;63.96;100691.03;10412549;28;20094;-68
2022/10/05 11:12:24;;;;;;;13.57;11.80;;;;;;;18.74;63.73;100683.09;10447134;28;20068;-68
2022/10/05 11:17:48;;;;;;;13.00;10.40;;;;;;;18.88;63.49;100674.81;10445319;28;20106;-68
2022/10/05 11:22:56;;;;;;;12.50;9.65;;;;;;;19.03;63.33;100667.97;10427359;28;20658;-69
2022/10/05 11:28:22;;;;;;;11.82;9.82;;;;;;;19.34;62.50;100663.47;10445773;28;20098;-67
2022/10/05 11:33:37;;;;;;;10.93;9.18;;;;;;;19.50;62.28;100656.59;10441395;28;20503;-68
2022/10/05 11:38:54;;;;;;;9.65;7.75;;;;;;;19.67;61.68;100659.53;10441474;28;20131;-68
2022/10/05 11:44:15;;;;;;;12.27;7.10;;;;;;;19.64;61.92;100640.06;10443087;28;20227;-67
2022/10/05 11:49:21;;;;;;;9.70;8.57;;;;;;;19.89;61.16;100638.09;10441224;28;20123;-68
2022/10/05 11:54:42;;;;;;;7.50;6.47;;;;;;;20.05;60.67;100638.53;10441392;28;20140;-67
2022/10/05 12:00:17;;;;;;;9.63;7.22;;;;;;;20.57;59.84;100625.94;10444271;28;20045;-74
2022/10/05 12:05:26;;;;;;;6.75;5.28;;;;;;;20.84;59.20;100616.50;10426627;28;20076;-75
2022/10/05 12:10:41;;;;;;;6.03;5.25;;;;;;;20.79;58.56;100607.13;10420337;28;20064;-72
2022/10/05 12:15:51;;;;;;;8.05;5.78;;;;;;;20.97;58.07;100605.31;10443909;28;20029;-72
2022/10/05 12:21:21;;;;;;;5.97;5.10;;;;;;;20.93;58.43;100607.72;10444027;28;20037;-74
2022/10/05 12:26:43;;;;;;;8.77;4.50;;;;;;;20.86;58.48;100597.97;10440740;28;20571;-72
2022/10/05 12:32:06;;;;;;;7.93;4.15;;;;;;;21.10;58.26;100599.59;10441894;28;20048;-70
2022/10/05 12:37:30;;;;;;;3.97;3.17;;;;;;;20.93;58.83;100590.47;10416770;28;20037;-73
2022/10/05 12:42:42;;;;;;;3.70;3.10;;;;;;;21.46;57.48;100583.97;10419976;28;20063;-71
2022/10/05 12:48:05;;;;;;;5.32;2.42;;;;;;;21.49;57.59;100580.75;10442043;28;20085;-73
2022/10/05 12:53:15;;;;;;;7.72;1.20;;;;;;;21.88;56.24;100578.22;10443928;28;20072;-72
2022/10/05 12:58:32;;;;;;;2.42;2.20;;;;;;;21.93;55.92;100577.50;10425499;28;20049;-72
2022/10/05 13:03:44;;;;;;;3.33;1.20;;;;;;;22.21;55.32;100575.78;10444541;28;20437;-73
2022/10/05 13:09:07;;;;;;;2.92;0.93;;;;;;;22.27;54.46;100567.44;10445893;28;20070;-72
2022/10/05 13:14:27;;;;;;;1.95;0.98;;;;;;;22.27;54.88;100570.16;10444263;28;20136;-72
2022/10/05 13:19:38;;;;;;;1.48;1.00;;;;;;;22.49;54.10;100555.72;10411547;28;20407;-70
2022/10/05 13:25:12;;;;;;;3.80;1.15;;;;;;;22.78;53.66;100543.56;10432231;28;20079;-72
2022/10/05 13:30:17;;;;;;;2.95;0.80;;;;;;;22.94;53.70;100543.78;10415552;28;20122;-72
2022/10/05 13:35:19;;;;;;;2.55;1.23;;;;;;;23.15;53.05;100548.47;10449352;28;20435;-72
2022/10/05 13:40:28;;;;;;;3.40;0.90;;;;;;;23.30;52.40;100544.25;10450718;28;20128;-70
2022/10/05 13:45:40;;;;;;;2.97;0.90;;;;;;;23.32;52.45;100544.84;10450975;28;20041;-69
2022/10/05 13:51:10;;;;;;;4.18;1.15;;;;;;;23.23;52.42;100538.97;10445751;28;20045;-71
2022/10/05 13:56:20;;;;;;;3.92;1.10;;;;;;;23.51;52.10;100539.84;10445451;28;20711;-73
2022/10/05 14:01:40;;;;;;;1.25;0.90;;;;;;;23.56;52.06;100548.16;10447205;28;20056;-73
2022/10/05 14:06:44;;;;;;;1.70;1.00;;;;;;;23.33;52.72;100528.13;10446260;28;20037;-72
2022/10/05 14:11:52;;;;;;;2.78;1.40;;;;;;;23.43;52.53;100529.34;10447597;28;20095;-71
2022/10/05 14:16:59;;;;;;;3.15;1.70;;;;;;;23.53;51.84;100526.69;10446448;28;20037;-71
2022/10/05 14:22:10;;;;;;;2.92;1.00;;;;;;;23.42;52.63;100519.44;10447384;28;20067;-71
2022/10/05 14:27:20;;;;;;;2.38;1.20;;;;;;;23.50;52.57;100521.72;10447946;28;20075;-72
2022/10/05 14:32:24;;;;;;;5.55;2.03;;;;;;;23.38;53.06;100519.13;10439837;28;20045;-72
2022/10/05 14:37:55;;;;;;;2.13;1.45;;;;;;;23.44;52.60;100509.03;10446846;28;20040;-71
2022/10/05 14:43:00;;;;;;;5.80;2.95;;;;;;;23.45;52.84;100496.97;10448215;28;20068;-73
2022/10/05 14:48:09;;;;;;;2.70;1.05;;;;;;;23.54;52.80;100495.44;10444169;28;20073;-73
2022/10/05 14:53:20;;;;;;;5.15;1.35;;;;;;;23.55;52.85;100497.06;10450519;28;20052;-71
2022/10/05 14:58:54;;;;;;;2.15;1.40;;;;;;;23.43;52.83;100490.91;10429112;28;20139;-73
2022/10/05 15:03:55;;;;;;;4.35;1.70;;;;;;;23.29;53.14;100491.31;10444282;28;20495;-73
2022/10/05 15:09:16;;;;;;;4.28;1.85;;;;;;;23.19;53.45;100479.41;10442641;28;20562;-71
2022/10/05 15:14:20;;;;;;;4.90;1.30;;;;;;;23.12;53.63;100466.72;10419668;28;20051;-71
2022/10/05 15:19:30;;;;;;;3.08;1.20;;;;;;;23.10;53.54;100465.31;10441093;28;20128;-72
2022/10/05 15:24:50;;;;;;;1.52;1.10;;;;;;;23.08;53.79;100453.75;10447338;28;20088;-72
2022/10/05 15:30:09;;;;;;;2.13;1.00;;;;;;;23.09;53.81;100450.78;10442988;28;20037;-71
2022/10/05 15:35:35;;;;;;;5.72;2.22;;;;;;;23.01;53.71;100439.41;10442815;28;20119;-71
2022/10/05 15:40:57;;;;;;;3.38;1.20;;;;;;;22.93;53.64;100435.22;10446683;28;20053;-75
2022/10/05 15:46:09;;;;;;;2.30;1.20;;;;;;;22.86;53.91;100429.91;10427064;28;20041;-72
2022/10/05 15:51:28;;;;;;;7.82;1.85;;;;;;;22.77;54.18;100434.19;10365609;28;20430;-71
2022/10/05 15:56:37;;;;;;;2.75;1.40;;;;;;;22.65;54.64;100438.94;10364614;28;20076;-72
2022/10/05 16:01:50;;;;;;;5.25;1.35;;;;;;;22.61;55.00;100437.81;10361985;28;20100;-72
2022/10/05 16:13:03;;;;;;;2.13;1.43;;;;;;;22.44;55.40;100441.44;10363414;28;20045;-72
2022/10/05 16:18:39;;;;;;;3.50;2.03;;;;;;;22.32;55.56;100440.72;10358663;28;20030;-70
2022/10/05 16:24:04;;;;;;;2.05;1.50;;;;;;;22.23;55.78;100442.19;10362343;28;20132;-71
2022/10/05 16:29:31;;;;;;;3.45;1.88;;;;;;;22.06;56.04;100448.50;10362840;28;20045;-71
2022/10/05 16:34:53;;;;;;;;;;;;;;;21.93;56.31;100457.03;10360232;28;20103;-70
2022/10/05 16:40:27;;;;;;;3.95;2.03;;;;;;;21.89;56.64;100458.63;10362496;28;20008;-73
2022/10/05 16:45:43;;;;;;;3.00;1.50;;;;;;;21.73;57.02;100457.53;10358525;28;20054;-70
2022/10/05 16:51:24;;;;;;;2.97;1.83;;;;;;;21.55;57.46;100458.59;10390674;28;20061;-71
2022/10/05 16:56:50;;;;;;;3.72;1.80;;;;;;;21.32;57.85;100454.84;10400754;28;20088;-70
2022/10/05 17:01:59;;;;;;;5.97;3.78;;;;;;;21.14;58.26;100469.56;10407534;28;20073;-73
2022/10/05 17:07:19;;;;;;;5.10;2.35;;;;;;;20.99;58.24;100466.50;10420865;28;20135;-72
2022/10/05 17:12:30;;;;;;;4.70;2.22;;;;;;;20.82;58.73;100482.84;10408505;28;20045;-74
2022/10/05 17:17:56;;;;;;;7.07;2.00;;;;;;;20.62;59.67;100485.97;10402715;28;20096;-74
2022/10/05 17:23:29;;;;;;;8.02;4.90;;;;;;;20.39;59.90;100490.31;10410138;28;20069;-72
2022/10/05 17:28:58;;;;;;;10.55;4.88;;;;;;;20.26;60.36;100498.78;10423837;28;20219;-74
2022/10/05 17:34:10;;;;;;;5.75;2.67;;;;;;;20.17;60.46;100509.19;10422165;28;20050;-74
2022/10/05 17:39:16;;;;;;;2.63;2.40;;;;;;;20.13;60.48;100526.28;10380676;28;20057;-73
2022/10/05 17:44:23;;;;;;;2.88;2.55;;;;;;;20.13;60.50;100539.94;10402674;28;20141;-69
2022/10/05 17:49:45;;;;;;;4.45;2.17;;;;;;;20.02;60.44;100538.81;10432744;28;20081;-68
2022/10/05 18:00:30;;;;;;;8.38;3.20;;;;;;;19.76;61.35;100559.97;10438832;28;20128;-68
2022/10/05 18:05:31;;;;;;;6.57;3.47;;;;;;;19.66;61.50;100558.84;10413655;28;20193;-69
2022/10/05 18:10:33;;;;;;;4.50;2.20;;;;;;;19.55;61.63;100564.03;10434132;28;20382;-69
2022/10/05 18:15:47;;;;;;;5.80;2.88;;;;;;;19.46;61.79;100570.03;10422057;28;20135;-69
2022/10/05 18:21:14;;;;;;;3.92;1.60;;;;;;;19.44;61.88;100575.69;10423691;28;20045;-68
2022/10/05 18:26:53;;;;;;;3.05;1.92;;;;;;;19.43;61.70;100576.75;10429316;28;20051;-68
2022/10/05 18:32:02;;;;;;;4.05;2.22;;;;;;;19.46;61.48;100589.13;10437549;28;20158;-68
2022/10/05 18:37:20;;;;;;;3.72;1.77;;;;;;;19.49;61.43;100583.19;10432332;28;20086;-67
2022/10/05 18:42:53;;;;;;;3.70;1.60;;;;;;;19.40;61.49;100594.41;10435153;28;20045;-67
2022/10/05 18:48:02;;;;;;;2.45;1.60;;;;;;;19.35;61.34;100605.19;10440342;28;20128;-67
2022/10/05 18:53:27;;;;;;;6.05;3.03;;;;;;;19.28;61.32;100609.88;10443098;28;20131;-69
2022/10/05 18:58:35;;;;;;;4.85;2.70;;;;;;;19.16;61.52;100617.97;10444571;28;20771;-67
2022/10/05 19:03:51;;;;;;;6.00;1.73;;;;;;;19.13;61.47;100620.31;10440097;28;20131;-67
2022/10/05 19:09:16;;;;;;;4.57;1.88;;;;;;;19.04;61.54;100622.50;10437092;28;20716;-67
2022/10/05 19:14:30;;;;;;;6.18;1.60;;;;;;;18.93;61.66;100648.59;10424890;28;20620;-66
2022/10/05 19:19:49;;;;;;;7.60;1.83;;;;;;;18.83;61.94;100661.88;10449109;28;20068;-70
2022/10/05 19:24:57;;;;;;;3.72;1.58;;;;;;;18.81;62.03;100666.72;10443318;28;20049;-68
2022/10/05 19:30:20;;;;;;;3.53;2.15;;;;;;;18.76;62.47;100674.69;10449888;28;20076;-68
2022/10/05 19:35:42;;;;;;;3.22;1.70;;;;;;;18.77;62.62;100682.63;10428535;28;20055;-68
2022/10/05 19:41:10;;;;;;;4.82;2.08;;;;;;;18.86;62.57;100682.38;10458026;28;20138;-68
2022/10/05 19:46:36;;;;;;;5.15;2.72;;;;;;;18.84;62.93;100698.97;10452630;28;20053;-67
2022/10/05 19:51:49;;;;;;;3.45;2.20;;;;;;;18.83;62.98;100700.84;10447700;28;20403;-67
2022/10/05 19:56:53;;;;;;;3.35;1.60;;;;;;;18.89;62.73;100703.75;10445970;28;20088;-67
2022/10/05 20:01:56;;;;;;;2.33;1.40;;;;;;;18.89;62.81;100703.75;10455265;28;20064;-69
2022/10/05 20:07:02;;;;;;;1.70;1.17;;;;;;;18.81;62.60;100713.84;10441069;28;22047;-69
2022/10/05 20:12:04;;;;;;;10.60;2.45;;;;;;;18.81;62.60;100719.28;10417560;28;20041;-68
2022/10/05 20:22:45;;;;;;;3.35;1.23;;;;;;;18.79;62.46;100740.47;10437731;28;20545;-68
2022/10/05 20:27:49;;;;;;;4.85;1.30;;;;;;;18.84;62.24;100734.38;10439363;28;20069;-67
2022/10/05 20:32:57;;;;;;;1.58;1.42;;;;;;;18.82;62.12;100739.22;10440345;28;20124;-68
2022/10/05 20:37:58;;;;;;;5.93;2.17;;;;;;;18.79;62.15;100761.41;10435507;28;20041;-67
2022/10/05 20:43:00;;;;;;;4.20;1.40;;;;;;;18.77;62.12;100758.06;10420825;28;20132;-67
2022/10/05 20:48:02;;;;;;;2.20;1.27;;;;;;;18.73;62.19;100782.19;10436117;28;20062;-67
2022/10/05 20:53:04;;;;;;;3.00;1.52;;;;;;;18.68;62.38;100778.44;10424844;28;20075;-68
2022/10/05 20:58:12;;;;;;;2.88;1.33;;;;;;;18.68;62.21;100779.31;10442698;28;20169;-70
2022/10/05 21:03:13;;;;;;;2.13;1.40;;;;;;;18.60;62.29;100772.22;10448706;28;20053;-69
2022/10/05 21:08:16;;;;;;;3.08;1.40;;;;;;;18.55;62.69;100780.19;10443746;28;20790;-68
2022/10/05 21:13:18;;;;;;;2.97;1.95;;;;;;;18.48;62.35;100782.09;10445623;28;20067;-70
2022/10/05 21:18:19;;;;;;;1.70;1.00;;;;;;;18.40;62.80;100788.66;10446674;28;20127;-69
2022/10/05 21:23:20;;;;;;;2.17;1.60;;;;;;;18.35;62.75;100795.81;10452790;28;20851;-68
2022/10/05 21:28:22;;;;;;;2.78;1.10;;;;;;;18.30;63.01;100807.31;10446331;28;20033;-67
2022/10/05 21:33:23;;;;;;;3.17;1.17;;;;;;;18.22;63.11;100804.84;10448155;28;20041;-69
2022/10/05 21:38:26;;;;;;;3.50;1.45;;;;;;;18.13;63.32;100804.28;10433186;28;20047;-68
2022/10/05 21:43:28;;;;;;;3.40;1.42;;;;;;;18.08;63.26;100811.41;10427031;28;20500;-67
2022/10/05 21:48:32;;;;;;;5.05;1.20;;;;;;;18.00;63.54;100805.13;10451277;28;20069;-70
2022/10/05 21:53:39;;;;;;;2.53;1.48;;;;;;;17.92;63.75;100812.69;10453867;28;20068;-68
2022/10/05 21:58:43;;;;;;;3.50;1.30;;;;;;;17.90;63.96;100815.63;10439650;28;20060;-68
2022/10/05 22:03:44;;;;;;;4.60;1.25;;;;;;;17.89;64.00;100827.56;10422974;28;20127;-68
2022/10/05 22:08:45;;;;;;;1.45;1.17;;;;;;;17.81;63.95;100838.63;10433069;28;20076;-67
2022/10/05 22:13:50;;;;;;;3.90;2.10;;;;;;;17.74;64.42;100852.22;10459643;28;20037;-68
2022/10/05 22:18:52;;;;;;;2.70;1.00;;;;;;;17.58;64.76;100855.41;10453731;28;20124;-68
2022/10/05 22:23:53;;;;;;;2.50;1.25;;;;;;;17.50;65.09;100851.00;10433349;28;20076;-68
2022/10/05 22:28:55;;;;;;;2.70;1.63;;;;;;;17.45;65.20;100848.06;10447287;28;20653;-67
2022/10/05 22:33:57;;;;;;;5.80;1.63;;;;;;;17.38;65.44;100850.78;10446104;28;20045;-70
2022/10/05 22:38:58;;;;;;;2.35;1.10;;;;;;;17.32;65.84;100857.06;10449207;28;20045;-67
2022/10/05 22:44:01;;;;;;;5.30;1.40;;;;;;;17.31;65.91;100860.81;10442892;28;20075;-69
2022/10/05 22:49:02;;;;;;;2.92;1.40;;;;;;;17.29;65.72;100865.63;10450107;28;20132;-68
2022/10/05 22:54:04;;;;;;;2.50;1.48;;;;;;;17.29;66.31;100864.78;10445907;28;20456;-68
2022/10/05 22:59:06;;;;;;;2.28;1.63;;;;;;;17.27;66.39;100877.75;10443941;28;20367;-67
2022/10/05 23:04:07;;;;;;;3.88;1.65;;;;;;;17.26;66.53;100882.34;10446024;28;20140;-67
2022/10/05 23:09:09;;;;;;;6.03;1.88;;;;;;;17.27;66.05;100888.63;10449573;28;20061;-68
2022/10/05 23:14:10;;;;;;;2.17;1.83;;;;;;;17.24;66.63;100877.13;10447822;28;20076;-67
2022/10/05 23:19:12;;;;;;;4.80;2.65;;;;;;;17.16;66.57;100880.03;10414807;28;20048;-66
2022/10/05 23:24:14;;;;;;;19.20;3.75;;;;;;;17.10;66.71;100888.16;10430226;28;20049;-67
2022/10/05 23:29:15;;;;;;;5.30;2.33;;;;;;;17.05;66.86;100900.47;10446505;28;20069;-67
2022/10/05 23:34:17;;;;;;;3.83;2.50;;;;;;;16.99;66.91;100890.44;10447416;28;20065;-67
2022/10/05 23:39:18;;;;;;;5.18;2.58;;;;;;;16.94;67.10;100902.94;10446516;28;20095;-68
2022/10/05 23:44:21;;;;;;;4.60;2.90;;;;;;;16.84;67.00;100904.19;10445180;28;20558;-67
2022/10/05 23:49:23;;;;;;;7.18;2.90;;;;;;;16.75;66.96;100921.66;10425749;28;20132;-67
2022/10/05 23:54:24;;;;;;;5.55;2.97;;;;;;;16.65;67.21;100910.34;10445672;28;20057;-66
2022/10/05 23:59:26;;;;;;;8.15;3.08;;;;;;;16.57;67.38;100918.66;10444808;28;20041;-67
